createdAt,value
2023-09-02T00:00:19.519Z,0.20
2023-09-02T00:02:47.931Z,0.20
2023-09-02T00:05:16.559Z,0.20
2023-09-02T00:07:46.389Z,0.30
2023-09-02T00:10:14.961Z,0.20
2023-09-02T00:12:43.853Z,0.20
2023-09-02T00:15:12.687Z,0.20
2023-09-02T00:17:41.249Z,0.20
2023-09-02T00:20:10.495Z,0.20
2023-09-02T00:22:38.800Z,0.20
2023-09-02T00:25:09.390Z,0.20
2023-09-02T00:27:37.695Z,0.20
2023-09-02T00:30:07.034Z,0.20
2023-09-02T00:32:35.390Z,0.23
2023-09-02T00:35:04.044Z,0.20
2023-09-02T00:37:32.551Z,0.20
2023-09-02T00:40:01.051Z,0.30
2023-09-02T00:42:32.861Z,0.30
2023-09-02T00:45:01.412Z,0.20
2023-09-02T00:47:30.197Z,0.20
2023-09-02T00:50:01.303Z,0.20
2023-09-02T00:52:29.893Z,0.27
2023-09-02T00:54:58.431Z,0.20
2023-09-02T00:57:27.905Z,0.20
2023-09-02T00:59:58.516Z,0.20
2023-09-02T01:02:27.386Z,0.20
2023-09-02T01:04:56.538Z,0.20
2023-09-02T01:07:26.653Z,0.17
2023-09-02T01:09:55.160Z,0.20
2023-09-02T01:12:23.620Z,0.20
2023-09-02T01:14:53.742Z,0.30
2023-09-02T01:17:23.537Z,0.20
2023-09-02T01:19:58.104Z,0.23
2023-09-02T01:22:57.508Z,0.20
2023-09-02T01:25:56.839Z,0.20
2023-09-02T01:28:32.368Z,0.20
2023-09-02T01:31:05.114Z,0.20
2023-09-02T01:33:33.860Z,0.30
2023-09-02T01:36:03.019Z,0.20
2023-09-02T01:38:37.519Z,0.30
2023-09-02T01:41:07.656Z,0.20
2023-09-02T01:43:38.268Z,0.20
2023-09-02T01:46:08.147Z,0.20
2023-09-02T01:48:37.236Z,0.20
2023-09-02T01:51:06.243Z,0.20
2023-09-02T01:53:35.152Z,0.20
2023-09-02T01:56:06.606Z,0.23
2023-09-02T01:58:36.261Z,0.20
2023-09-02T02:01:04.811Z,0.20
2023-09-02T02:03:38.724Z,0.20
2023-09-02T02:06:10.499Z,0.20
2023-09-02T02:08:45.966Z,0.20
2023-09-02T02:11:15.683Z,0.30
2023-09-02T02:14:13.777Z,0.20
2023-09-02T02:16:43.846Z,0.30
2023-09-02T02:19:13.567Z,0.20
2023-09-02T02:21:41.940Z,0.20
2023-09-02T02:24:10.563Z,0.20
2023-09-02T02:26:38.909Z,0.20
2023-09-02T02:29:08.592Z,0.20
2023-09-02T02:31:37.861Z,0.30
2023-09-02T02:34:06.337Z,0.20
2023-09-02T02:36:34.769Z,0.20
2023-09-02T02:39:05.907Z,0.20
2023-09-02T02:41:34.488Z,0.20
2023-09-02T02:44:02.808Z,0.20
2023-09-02T02:46:32.611Z,0.17
2023-09-02T02:49:01.260Z,0.20
2023-09-02T02:51:29.628Z,0.20
2023-09-02T02:53:57.879Z,0.20
2023-09-02T02:56:26.611Z,0.20
2023-09-02T02:58:57.160Z,0.20
2023-09-02T03:01:25.657Z,0.20
2023-09-02T03:03:55.380Z,0.20
2023-09-02T03:06:23.748Z,0.20
2023-09-02T03:08:51.985Z,0.20
2023-09-02T03:11:20.283Z,0.20
2023-09-02T03:13:48.721Z,0.20
2023-09-02T03:16:17.177Z,0.20
2023-09-02T03:18:45.739Z,0.20
2023-09-02T03:21:15.524Z,0.20
2023-09-02T03:23:44.118Z,0.20
2023-09-02T03:26:13.498Z,0.30
2023-09-02T03:28:41.928Z,0.20
2023-09-02T03:31:11.490Z,0.20
2023-09-02T03:33:40.445Z,0.20
2023-09-02T03:36:09.162Z,0.20
2023-09-02T03:38:39.034Z,0.20
2023-09-02T03:41:13.344Z,0.20
2023-09-02T03:43:41.856Z,0.20
2023-09-02T03:46:13.133Z,0.20
2023-09-02T03:48:41.560Z,0.20
2023-09-02T03:51:17.719Z,0.20
2023-09-02T03:53:50.850Z,0.30
2023-09-02T03:56:19.496Z,0.20
2023-09-02T03:58:47.851Z,0.20
2023-09-02T04:01:17.137Z,0.20
2023-09-02T04:03:45.611Z,0.37
2023-09-02T04:06:13.945Z,0.20
2023-09-02T04:08:42.367Z,0.20
2023-09-02T04:11:12.023Z,0.20
2023-09-02T04:13:40.575Z,0.20
2023-09-02T04:16:10.390Z,0.23
2023-09-02T04:18:41.920Z,0.20
2023-09-02T04:21:11.261Z,0.20
2023-09-02T04:23:39.962Z,0.30
2023-09-02T04:26:08.327Z,0.20
2023-09-02T04:28:38.044Z,0.20
2023-09-02T04:31:06.400Z,0.20
2023-09-02T04:33:34.780Z,0.20
2023-09-02T04:36:03.826Z,0.20
2023-09-02T04:38:32.356Z,0.23
2023-09-02T04:41:04.505Z,0.20
2023-09-02T04:43:32.961Z,0.20
2023-09-02T04:46:05.245Z,0.20
2023-09-02T04:48:33.556Z,0.17
2023-09-02T04:51:04.662Z,0.20
2023-09-02T04:53:33.053Z,0.20
2023-09-02T04:56:02.181Z,0.20
2023-09-02T04:58:30.618Z,0.20
2023-09-02T05:01:10.912Z,0.20
2023-09-02T05:03:39.218Z,0.20
2023-09-02T05:06:09.466Z,0.27
2023-09-02T05:08:37.916Z,0.20
2023-09-02T05:11:06.261Z,0.20
2023-09-02T05:13:34.627Z,0.20
2023-09-02T05:16:03.107Z,0.20
2023-09-02T05:18:33.028Z,0.20
2023-09-02T05:21:01.415Z,0.20
2023-09-02T05:23:29.682Z,0.20
2023-09-02T05:25:58.739Z,0.20
2023-09-02T05:28:27.710Z,0.20
2023-09-02T05:30:56.175Z,0.20
2023-09-02T05:33:24.699Z,0.20
2023-09-02T05:35:54.695Z,0.20
2023-09-02T05:38:23.222Z,0.20
2023-09-02T05:40:51.709Z,0.20
2023-09-02T05:43:20.963Z,0.20
2023-09-02T05:45:50.243Z,0.20
2023-09-02T05:48:20.469Z,0.20
2023-09-02T05:50:48.817Z,0.20
2023-09-02T05:53:18.976Z,0.20
2023-09-02T05:55:55.621Z,0.20
2023-09-02T05:58:24.959Z,0.20
2023-09-02T06:00:53.396Z,0.20
2023-09-02T06:03:23.235Z,0.20
2023-09-02T06:05:52.033Z,0.20
2023-09-02T06:08:21.944Z,0.20
2023-09-02T06:11:01.308Z,0.20
2023-09-02T06:13:30.035Z,0.20
2023-09-02T06:16:01.056Z,0.20
2023-09-02T06:18:29.457Z,0.20
2023-09-02T06:20:58.414Z,0.20
2023-09-02T06:23:28.396Z,0.20
2023-09-02T06:26:00.439Z,0.20
2023-09-02T06:28:30.136Z,0.20
2023-09-02T06:30:58.559Z,0.20
2023-09-02T06:33:28.000Z,0.20
2023-09-02T06:35:56.251Z,0.20
2023-09-02T06:38:24.606Z,0.20
2023-09-02T06:40:54.437Z,0.20
2023-09-02T06:43:22.741Z,0.10
2023-09-02T06:45:51.428Z,0.20
2023-09-02T06:48:19.928Z,0.20
2023-09-02T06:50:48.728Z,0.20
2023-09-02T06:53:17.549Z,0.20
2023-09-02T06:55:46.268Z,0.20
2023-09-02T06:58:16.005Z,0.20
2023-09-02T07:00:44.641Z,0.10
2023-09-02T07:03:14.505Z,0.20
2023-09-02T07:05:43.012Z,0.17
2023-09-02T07:08:12.012Z,0.20
2023-09-02T07:10:40.426Z,0.20
2023-09-02T07:13:08.689Z,0.30
2023-09-02T07:15:41.595Z,0.20
2023-09-02T07:18:10.080Z,0.20
2023-09-02T07:20:39.039Z,0.20
2023-09-02T07:23:07.429Z,0.20
2023-09-02T07:25:35.766Z,0.20
2023-09-02T07:28:04.354Z,0.20
2023-09-02T07:30:33.840Z,0.10
2023-09-02T07:33:03.514Z,0.10
2023-09-02T07:35:36.544Z,0.10
2023-09-02T07:38:05.627Z,0.20
2023-09-02T07:40:34.231Z,0.20
2023-09-02T07:43:04.040Z,0.10
2023-09-02T07:45:32.874Z,0.20
2023-09-02T07:48:03.578Z,0.10
2023-09-02T07:50:32.052Z,0.20
2023-09-02T07:53:00.800Z,0.10
2023-09-02T07:55:29.316Z,0.20
2023-09-02T07:57:58.781Z,0.17
2023-09-02T08:00:27.614Z,0.20
2023-09-02T08:02:56.052Z,0.10
2023-09-02T08:05:26.020Z,0.20
2023-09-02T08:07:54.921Z,0.13
2023-09-02T08:10:23.546Z,0.20
2023-09-02T08:12:52.169Z,0.10
2023-09-02T08:15:21.168Z,0.20
2023-09-02T08:17:49.788Z,0.20
2023-09-02T08:20:18.488Z,0.20
2023-09-02T08:22:48.503Z,0.10
2023-09-02T08:25:16.945Z,0.20
2023-09-02T08:27:48.683Z,0.10
2023-09-02T08:30:17.848Z,0.20
2023-09-02T08:32:46.256Z,0.20
2023-09-02T08:35:15.141Z,0.20
2023-09-02T08:37:43.647Z,0.20
2023-09-02T08:40:16.857Z,0.20
2023-09-02T08:42:45.964Z,0.20
2023-09-02T08:45:16.502Z,0.10
2023-09-02T08:47:50.054Z,0.20
2023-09-02T08:50:20.638Z,0.10
2023-09-02T08:52:49.156Z,0.20
2023-09-02T08:55:19.747Z,0.10
2023-09-02T08:57:48.553Z,0.20
2023-09-02T09:00:17.152Z,0.10
2023-09-02T09:02:45.861Z,0.10
2023-09-02T09:05:15.075Z,0.20
2023-09-02T09:07:43.784Z,0.10
2023-09-02T09:10:19.691Z,0.20
2023-09-02T09:12:50.344Z,0.20
2023-09-02T09:15:20.770Z,0.10
2023-09-02T09:17:49.657Z,0.20
2023-09-02T09:20:18.579Z,0.20
2023-09-02T09:22:51.578Z,0.10
2023-09-02T09:25:23.111Z,0.10
2023-09-02T09:27:51.733Z,0.10
2023-09-02T09:30:31.124Z,0.20
2023-09-02T09:33:02.022Z,0.20
2023-09-02T09:35:31.681Z,0.10
2023-09-02T09:38:00.293Z,0.10
2023-09-02T09:40:34.062Z,0.10
2023-09-02T09:43:04.645Z,0.10
2023-09-02T09:45:35.087Z,0.10
2023-09-02T09:48:11.662Z,0.10
2023-09-02T09:50:40.713Z,0.10
2023-09-02T09:53:10.948Z,0.10
2023-09-02T09:55:41.645Z,0.10
2023-09-02T09:58:11.318Z,0.20
2023-09-02T10:00:40.146Z,0.10
2023-09-02T10:03:10.186Z,0.10
2023-09-02T10:05:39.019Z,0.10
2023-09-02T10:08:08.753Z,0.10
2023-09-02T10:10:39.215Z,0.10
2023-09-02T10:13:09.108Z,0.10
2023-09-02T10:15:37.642Z,0.10
2023-09-02T10:18:06.802Z,0.10
2023-09-02T10:20:37.162Z,0.10
2023-09-02T10:23:07.877Z,0.10
2023-09-02T10:25:46.150Z,0.10
2023-09-02T10:28:23.019Z,0.10
2023-09-02T10:30:53.535Z,0.10
2023-09-02T10:33:29.062Z,0.10
2023-09-02T10:36:01.592Z,0.10
2023-09-02T10:38:33.945Z,0.10
2023-09-02T10:41:09.775Z,0.10
2023-09-02T10:43:41.543Z,0.10
2023-09-02T10:46:10.599Z,0.10
2023-09-02T10:48:42.043Z,0.10
2023-09-02T10:51:11.184Z,0.10
2023-09-02T10:53:59.274Z,0.17
2023-09-02T10:56:28.261Z,0.10
2023-09-02T10:58:58.860Z,0.10
2023-09-02T11:01:30.423Z,0.10
2023-09-02T11:03:58.842Z,0.10
2023-09-02T11:06:27.348Z,0.10
2023-09-02T11:08:56.014Z,0.10
2023-09-02T11:11:24.688Z,0.10
2023-09-02T11:14:24.821Z,0.10
2023-09-02T11:17:30.935Z,0.10
2023-09-02T11:20:01.511Z,0.10
2023-09-02T11:22:56.282Z,0.10
2023-09-02T11:25:36.226Z,0.10
2023-09-02T11:28:05.888Z,0.10
2023-09-02T11:30:37.703Z,0.10
2023-09-02T11:33:07.123Z,0.20
2023-09-02T11:35:36.553Z,0.10
2023-09-02T11:38:06.680Z,0.10
2023-09-02T11:40:35.063Z,0.10
2023-09-02T11:43:04.097Z,0.10
2023-09-02T11:45:36.952Z,0.10
2023-09-02T11:48:06.310Z,0.10
2023-09-02T11:50:35.312Z,0.10
2023-09-02T11:53:07.253Z,0.10
2023-09-02T11:55:40.656Z,0.10
2023-09-02T11:58:11.705Z,0.10
2023-09-02T12:00:45.197Z,0.10
2023-09-02T12:03:15.675Z,0.10
2023-09-02T12:05:52.042Z,0.10
2023-09-02T12:08:20.620Z,0.10
2023-09-02T12:10:51.388Z,0.10
2023-09-02T12:13:21.755Z,0.10
2023-09-02T12:15:53.168Z,0.10
2023-09-02T12:18:22.489Z,0.20
2023-09-02T12:20:51.714Z,0.10
2023-09-02T12:23:20.757Z,0.10
2023-09-02T12:26:05.441Z,0.10
2023-09-02T12:28:33.817Z,0.10
2023-09-02T12:31:04.431Z,0.10
2023-09-02T12:33:35.582Z,0.10
2023-09-02T12:36:06.448Z,0.10
2023-09-02T12:38:50.068Z,0.10
2023-09-02T12:41:19.366Z,0.10
2023-09-02T12:43:48.046Z,0.10
2023-09-02T12:46:22.738Z,0.10
2023-09-02T12:48:52.159Z,0.10
2023-09-02T12:51:29.035Z,0.10
2023-09-02T12:53:57.946Z,0.10
2023-09-02T12:56:26.273Z,0.10
2023-09-02T12:58:54.687Z,0.10
2023-09-02T13:01:24.734Z,0.10
2023-09-02T13:03:53.154Z,0.10
2023-09-02T13:06:21.642Z,0.10
2023-09-02T13:08:50.190Z,0.10
2023-09-02T13:11:19.705Z,0.10
2023-09-02T13:13:48.368Z,0.10
2023-09-02T13:16:17.035Z,0.10
2023-09-02T13:18:47.414Z,0.10
2023-09-02T13:21:15.780Z,0.10
2023-09-02T13:23:50.141Z,0.10
2023-09-02T13:26:21.803Z,0.10
2023-09-02T13:28:50.364Z,0.10
2023-09-02T13:31:21.269Z,0.10
2023-09-02T13:33:51.194Z,0.10
2023-09-02T13:36:20.342Z,0.10
2023-09-02T13:38:49.396Z,0.10
2023-09-02T13:41:20.791Z,0.10
2023-09-02T13:43:49.398Z,0.10
2023-09-02T13:46:18.072Z,0.05
2023-09-02T13:48:47.041Z,0.10
2023-09-02T13:51:23.475Z,0.10
2023-09-02T13:53:54.415Z,0.10
2023-09-02T13:56:23.845Z,0.10
2023-09-02T13:58:52.825Z,0.10
2023-09-02T14:01:21.415Z,0.10
2023-09-02T14:03:50.199Z,0.10
2023-09-02T14:06:20.253Z,0.10
2023-09-02T14:08:48.849Z,0.00
2023-09-02T14:11:19.042Z,0.00
2023-09-02T14:13:50.464Z,0.10
2023-09-02T14:16:19.210Z,0.10
2023-09-02T14:18:48.599Z,0.10
2023-09-02T14:21:17.048Z,0.10
2023-09-02T14:23:46.923Z,0.10
2023-09-02T14:26:18.167Z,0.10
2023-09-02T14:28:47.131Z,0.10
2023-09-02T14:31:15.979Z,0.00
2023-09-02T14:33:44.401Z,0.10
2023-09-02T14:36:12.876Z,0.10
2023-09-02T14:38:41.321Z,0.10
2023-09-02T14:41:11.734Z,0.10
2023-09-02T14:43:40.662Z,0.10
2023-09-02T14:46:10.213Z,0.10
2023-09-02T14:48:39.166Z,0.10
2023-09-02T14:51:07.475Z,0.10
2023-09-02T14:53:37.357Z,0.10
2023-09-02T14:56:05.938Z,0.10
2023-09-02T14:58:36.739Z,0.10
2023-09-02T15:01:05.688Z,0.10
2023-09-02T15:03:39.404Z,0.00
2023-09-02T15:06:08.147Z,0.10
2023-09-02T15:08:37.985Z,0.10
2023-09-02T15:11:06.401Z,0.03
2023-09-02T15:13:40.359Z,0.10
2023-09-02T15:16:10.765Z,0.10
2023-09-02T15:18:39.340Z,0.10
2023-09-02T15:21:09.337Z,0.10
2023-09-02T15:23:44.864Z,0.10
2023-09-02T15:26:13.714Z,0.00
2023-09-02T15:28:44.445Z,0.10
2023-09-02T15:31:14.558Z,0.10
2023-09-02T15:33:44.444Z,0.10
2023-09-02T15:36:20.707Z,0.00
2023-09-02T15:38:50.033Z,0.10
2023-09-02T15:41:19.695Z,0.00
2023-09-02T15:43:54.426Z,0.00
2023-09-02T15:46:23.287Z,0.10
2023-09-02T15:48:51.824Z,0.10
2023-09-02T15:51:21.622Z,0.10
2023-09-02T15:53:50.286Z,0.10
2023-09-02T15:56:18.828Z,0.10
2023-09-02T15:58:47.274Z,0.10
2023-09-02T16:01:17.453Z,0.10
2023-09-02T16:03:46.166Z,0.10
2023-09-02T16:06:14.706Z,0.10
2023-09-02T16:08:43.250Z,0.10
2023-09-02T16:11:11.747Z,0.10
2023-09-02T16:13:40.132Z,0.10
2023-09-02T16:16:08.607Z,0.10
2023-09-02T16:18:39.298Z,0.10
2023-09-02T16:21:07.760Z,0.10
2023-09-02T16:23:36.448Z,0.10
2023-09-02T16:26:05.447Z,0.20
2023-09-02T16:28:36.645Z,0.10
2023-09-02T16:31:05.714Z,0.10
2023-09-02T16:33:34.713Z,0.10
2023-09-02T16:36:05.450Z,0.10
2023-09-02T16:38:34.160Z,0.20
2023-09-02T16:41:04.955Z,0.10
2023-09-02T16:43:33.747Z,0.10
2023-09-02T16:46:02.188Z,0.10
2023-09-02T16:48:30.571Z,0.10
2023-09-02T16:50:58.993Z,0.10
2023-09-02T16:53:29.126Z,0.10
2023-09-02T16:56:04.851Z,0.10
2023-09-02T16:58:35.603Z,0.10
2023-09-02T17:01:06.866Z,0.10
2023-09-02T17:03:37.235Z,0.10
2023-09-02T17:06:08.474Z,0.10
2023-09-02T17:08:39.376Z,0.10
2023-09-02T17:11:07.992Z,0.10
2023-09-02T17:13:37.423Z,0.10
2023-09-02T17:16:09.764Z,0.10
2023-09-02T17:18:38.542Z,0.10
2023-09-02T17:21:07.677Z,0.10
2023-09-02T17:23:36.309Z,0.10
2023-09-02T17:26:06.418Z,0.10
2023-09-02T17:28:35.965Z,0.10
2023-09-02T17:31:07.453Z,0.10
2023-09-02T17:33:37.912Z,0.10
2023-09-02T17:36:06.990Z,0.10
2023-09-02T17:38:35.855Z,0.10
2023-09-02T17:41:06.503Z,0.10
2023-09-02T17:43:34.869Z,0.13
2023-09-02T17:46:03.894Z,0.17
2023-09-02T17:48:32.417Z,0.10
2023-09-02T17:51:00.961Z,0.10
2023-09-02T17:53:29.885Z,0.10
2023-09-02T17:55:58.276Z,0.10
2023-09-02T17:58:30.312Z,0.10
2023-09-02T18:00:58.861Z,0.10
2023-09-02T18:03:27.605Z,0.10
2023-09-02T18:05:58.393Z,0.10
2023-09-02T18:08:35.059Z,0.10
2023-09-02T18:11:15.405Z,0.20
2023-09-02T18:13:45.226Z,0.20
2023-09-02T18:16:13.818Z,0.20
2023-09-02T18:18:42.460Z,0.10
2023-09-02T18:21:11.949Z,0.10
2023-09-02T18:23:40.512Z,0.20
2023-09-02T18:26:08.868Z,0.10
2023-09-02T18:28:37.570Z,0.10
2023-09-02T18:31:07.481Z,0.10
2023-09-02T18:33:35.859Z,0.10
2023-09-02T18:36:04.527Z,0.10
2023-09-02T18:38:32.938Z,0.20
2023-09-02T18:41:01.497Z,0.10
2023-09-02T18:43:30.123Z,0.10
2023-09-02T18:45:58.994Z,0.10
2023-09-02T18:48:28.758Z,0.10
2023-09-02T18:50:57.779Z,0.13
2023-09-02T18:53:26.339Z,0.20
2023-09-02T18:55:54.735Z,0.20
2023-09-02T18:58:23.308Z,0.10
2023-09-02T19:00:51.623Z,0.10
2023-09-02T19:03:20.058Z,0.10
2023-09-02T19:05:49.808Z,0.10
2023-09-02T19:08:18.467Z,0.10
2023-09-02T19:10:47.021Z,0.10
2023-09-02T19:13:15.628Z,0.17
2023-09-02T19:15:43.929Z,0.20
2023-09-02T19:18:12.590Z,0.20
2023-09-02T19:20:40.991Z,0.10
2023-09-02T19:23:10.953Z,0.20
2023-09-02T19:25:39.338Z,0.10
2023-09-02T19:28:08.237Z,0.10
2023-09-02T19:30:36.843Z,0.20
2023-09-02T19:33:05.826Z,0.10
2023-09-02T19:35:34.623Z,0.10
2023-09-02T19:38:03.107Z,0.20
2023-09-02T19:40:32.976Z,0.10
2023-09-02T19:43:01.665Z,0.20
2023-09-02T19:45:30.231Z,0.10
2023-09-02T19:47:59.082Z,0.20
2023-09-02T19:50:27.782Z,0.10
2023-09-02T19:52:56.249Z,0.10
2023-09-02T19:55:24.837Z,0.10
2023-09-02T19:57:54.856Z,0.20
2023-09-02T20:00:23.421Z,0.10
2023-09-02T20:02:52.045Z,0.10
2023-09-02T20:05:20.439Z,0.20
2023-09-02T20:07:50.900Z,0.17
2023-09-02T20:10:19.349Z,0.10
2023-09-02T20:12:48.169Z,0.20
2023-09-02T20:15:19.131Z,0.10
2023-09-02T20:17:47.524Z,0.20
2023-09-02T20:20:16.293Z,0.10
2023-09-02T20:22:46.323Z,0.10
2023-09-02T20:25:14.873Z,0.20
2023-09-02T20:27:44.115Z,0.20
2023-09-02T20:30:13.363Z,0.20
2023-09-02T20:32:43.395Z,0.10
2023-09-02T20:35:12.897Z,0.20
2023-09-02T20:37:41.887Z,0.10
2023-09-02T20:40:11.256Z,0.10
2023-09-02T20:42:39.572Z,0.10
2023-09-02T20:45:08.414Z,0.20
2023-09-02T20:47:36.834Z,0.20
2023-09-02T20:50:07.463Z,0.17
2023-09-02T20:52:35.850Z,0.20
2023-09-02T20:55:05.702Z,0.20
2023-09-02T20:57:34.111Z,0.20
2023-09-02T21:00:02.669Z,0.10
2023-09-02T21:02:31.147Z,0.20
2023-09-02T21:04:59.755Z,0.10
2023-09-02T21:07:29.618Z,0.10
2023-09-02T21:09:58.779Z,0.20
2023-09-02T21:12:27.370Z,0.10
2023-09-02T21:14:57.728Z,0.20
2023-09-02T21:17:26.154Z,0.13
2023-09-02T21:19:54.600Z,0.10
2023-09-02T21:22:23.080Z,0.20
2023-09-02T21:24:53.366Z,0.10
2023-09-02T21:27:21.824Z,0.20
2023-09-02T21:29:50.267Z,0.13
2023-09-02T21:32:19.728Z,0.20
2023-09-02T21:34:48.197Z,0.20
2023-09-02T21:37:16.637Z,0.30
2023-09-02T21:39:45.055Z,0.20
2023-09-02T21:42:14.844Z,0.20
2023-09-02T21:44:43.499Z,0.13
2023-09-02T21:47:12.000Z,0.20
2023-09-02T21:49:40.379Z,0.20
2023-09-02T21:52:08.797Z,0.20
2023-09-02T21:54:37.341Z,0.20
2023-09-02T21:57:06.218Z,0.20
2023-09-02T21:59:36.247Z,0.20
2023-09-02T22:02:05.532Z,0.10
2023-09-02T22:04:34.213Z,0.20
2023-09-02T22:07:02.780Z,0.10
2023-09-02T22:09:31.227Z,0.30
2023-09-02T22:11:59.711Z,0.20
2023-09-02T22:14:28.215Z,0.20
2023-09-02T22:16:58.107Z,0.20
2023-09-02T22:19:26.643Z,0.20
2023-09-02T22:21:55.065Z,0.20
2023-09-02T22:24:23.644Z,0.20
2023-09-02T22:26:52.139Z,0.20
2023-09-02T22:29:20.647Z,0.20
2023-09-02T22:31:49.175Z,0.20
2023-09-02T22:34:19.134Z,0.13
2023-09-02T22:36:47.565Z,0.20
2023-09-02T22:39:15.821Z,0.20
2023-09-02T22:41:44.126Z,0.20
2023-09-02T22:44:13.015Z,0.20
2023-09-02T22:46:41.410Z,0.20
2023-09-02T22:49:23.161Z,0.20
2023-09-02T22:51:51.644Z,0.10
2023-09-02T22:54:20.036Z,0.20
2023-09-02T22:56:49.348Z,0.20
2023-09-02T22:59:17.763Z,0.20
2023-09-02T23:01:46.153Z,0.20
2023-09-02T23:04:14.421Z,0.20
2023-09-02T23:06:44.224Z,0.20
2023-09-02T23:09:12.989Z,0.20
2023-09-02T23:11:41.512Z,0.20
2023-09-02T23:14:09.852Z,0.20
2023-09-02T23:16:38.205Z,0.30
2023-09-02T23:19:06.760Z,0.20
2023-09-02T23:21:35.700Z,0.30
2023-09-02T23:24:05.860Z,0.20
2023-09-02T23:26:34.186Z,0.20
2023-09-02T23:29:02.448Z,0.30
2023-09-02T23:31:31.088Z,0.20
2023-09-02T23:33:59.482Z,0.20
2023-09-02T23:36:27.839Z,0.20
2023-09-02T23:38:56.249Z,0.27
2023-09-02T23:41:26.138Z,0.20
2023-09-02T23:43:54.928Z,0.20
2023-09-02T23:46:23.535Z,0.20
2023-09-02T23:48:52.071Z,0.20
2023-09-02T23:51:20.772Z,0.20
2023-09-02T23:53:49.196Z,0.27
2023-09-02T23:56:18.167Z,0.20
2023-09-02T23:58:48.447Z,0.20
